Time;durP1;ratioP1;P1;durP2;ratioP2;P2;SDS_P1;SDS_P2;PMS_P1;PMS_P2;Temp;Humidity;BMP_temperature;BMP_pressure;BME280_temperature;BME280_humidity;BME280_pressure;Samples;Min_cycle;Max_cycle;Signal;HPM_P1;HPM_P2
2023/02/26 00:01:39;;;;;;;4.47;3.30;;;;;;;;;;5051250;28;20204;-67
2023/02/26 00:04:08;;;;;;;3.00;2.70;;;;;;;;;;5050348;28;20227;-68
2023/02/26 00:06:51;;;;;;;3.20;2.95;;;;;;;;;;5050075;28;20201;-67
2023/02/26 00:09:19;;;;;;;5.18;2.65;;;;;;;;;;5050901;28;20525;-68
2023/02/26 00:11:48;;;;;;;5.03;3.45;;;;;;;;;;5052097;28;20246;-67
2023/02/26 00:14:17;;;;;;;4.03;3.35;;;;;;;;;;5050992;28;20246;-67
2023/02/26 00:16:47;;;;;;;3.08;2.40;;;;;;;;;;5051026;28;20234;-67
2023/02/26 00:19:15;;;;;;;2.50;2.30;;;;;;;;;;5051092;28;20224;-67
2023/02/26 00:21:43;;;;;;;2.60;2.50;;;;;;;;;;5048172;28;20627;-67
2023/02/26 00:24:12;;;;;;;4.28;2.45;;;;;;;;;;5050836;28;20319;-67
2023/02/26 00:26:40;;;;;;;2.78;2.58;;;;;;;;;;5050926;28;20212;-67
2023/02/26 00:29:08;;;;;;;4.90;3.22;;;;;;;;;;5051094;28;20228;-67
2023/02/26 00:31:38;;;;;;;3.58;3.28;;;;;;;;;;5053503;28;20200;-67
2023/02/26 00:34:06;;;;;;;6.28;2.50;;;;;;;;;;5054326;28;20234;-67
2023/02/26 00:36:40;;;;;;;8.13;3.03;;;;;;;;;;5053828;28;20215;-67
2023/02/26 00:39:14;;;;;;;4.55;3.17;;;;;;;;;;5054146;28;20208;-67
2023/02/26 00:41:42;;;;;;;2.90;2.70;;;;;;;;;;5053996;28;20545;-68
2023/02/26 00:44:10;;;;;;;2.80;2.60;;;;;;;;;;5054980;28;20215;-67
2023/02/26 00:46:45;;;;;;;2.50;2.30;;;;;;;;;;5054519;28;20204;-67
2023/02/26 00:49:18;;;;;;;3.08;2.00;;;;;;;;;;5054429;28;20184;-67
2023/02/26 00:51:49;;;;;;;3.85;2.65;;;;;;;;;;5054603;28;20189;-68
2023/02/26 00:54:20;;;;;;;3.83;2.95;;;;;;;;;;5054302;28;20701;-67
2023/02/26 00:56:49;;;;;;;3.05;2.80;;;;;;;;;;5054584;28;20203;-67
2023/02/26 00:59:17;;;;;;;3.15;2.50;;;;;;;;;;5053547;28;20230;-67
2023/02/26 01:01:47;;;;;;;4.22;1.90;;;;;;;;;;5053529;28;20205;-67
2023/02/26 01:04:16;;;;;;;7.15;2.55;;;;;;;;;;5035815;28;20196;-66
2023/02/26 01:06:45;;;;;;;3.47;2.25;;;;;;;;;;5057170;28;20266;-67
2023/02/26 01:09:18;;;;;;;2.10;2.00;;;;;;;;;;5054380;28;20226;-67
2023/02/26 01:11:46;;;;;;;4.07;2.33;;;;;;;;;;5053046;28;20181;-68
2023/02/26 01:14:14;;;;;;;3.50;3.30;;;;;;;;;;5053826;28;20213;-67
2023/02/26 01:16:48;;;;;;;3.97;2.50;;;;;;;;;;5054855;28;20663;-67
2023/02/26 01:19:21;;;;;;;3.30;2.53;;;;;;;;;;5054586;28;20229;-67
2023/02/26 01:21:51;;;;;;;2.90;2.70;;;;;;;;;;5055126;28;20195;-68
2023/02/26 01:24:21;;;;;;;2.40;2.20;;;;;;;;;;5054211;28;20569;-67
2023/02/26 01:26:49;;;;;;;8.13;2.97;;;;;;;;;;5054939;28;20620;-68
2023/02/26 01:29:18;;;;;;;3.65;3.00;;;;;;;;;;5052851;28;20286;-67
2023/02/26 01:31:50;;;;;;;3.58;2.80;;;;;;;;;;5054282;28;20197;-67
2023/02/26 01:34:22;;;;;;;2.80;2.60;;;;;;;;;;5053564;28;20195;-67
2023/02/26 01:36:52;;;;;;;2.85;2.40;;;;;;;;;;5053757;28;20203;-67
2023/02/26 01:39:26;;;;;;;3.60;2.63;;;;;;;;;;5053794;28;20274;-67
2023/02/26 01:41:55;;;;;;;2.40;2.30;;;;;;;;;;5052691;28;20633;-66
2023/02/26 01:44:26;;;;;;;2.40;2.30;;;;;;;;;;5053300;28;20565;-67
2023/02/26 01:47:01;;;;;;;3.03;2.70;;;;;;;;;;5053587;28;20193;-67
2023/02/26 01:49:31;;;;;;;2.75;2.55;;;;;;;;;;5053048;28;20188;-67
2023/02/26 01:52:00;;;;;;;3.25;3.05;;;;;;;;;;5053459;28;20736;-67
2023/02/26 01:54:30;;;;;;;4.05;2.58;;;;;;;;;;5053073;28;20721;-67
2023/02/26 01:57:03;;;;;;;2.60;2.40;;;;;;;;;;5053274;28;20238;-67
2023/02/26 01:59:32;;;;;;;3.25;2.75;;;;;;;;;;5052783;28;20228;-67
2023/02/26 02:02:03;;;;;;;2.08;1.98;;;;;;;;;;5056370;28;20293;-67
2023/02/26 02:04:33;;;;;;;2.92;2.58;;;;;;;;;;5055418;28;20192;-68
2023/02/26 02:07:02;;;;;;;3.17;2.95;;;;;;;;;;5055763;28;20691;-68
2023/02/26 02:09:31;;;;;;;4.57;2.75;;;;;;;;;;5056935;28;20284;-66
2023/02/26 02:12:05;;;;;;;3.10;2.47;;;;;;;;;;5057927;28;20693;-67
2023/02/26 02:14:39;;;;;;;7.07;2.83;;;;;;;;;;5056960;28;20195;-67
2023/02/26 02:17:09;;;;;;;3.53;3.20;;;;;;;;;;5056242;28;20287;-67
2023/02/26 02:20:00;;;;;;;3.10;2.90;;;;;;;;;;5055900;28;20207;-68
2023/02/26 02:22:36;;;;;;;3.03;2.72;;;;;;;;;;5056136;28;20778;-67
2023/02/26 02:25:13;;;;;;;2.65;2.40;;;;;;;;;;5055822;28;20193;-67
2023/02/26 02:27:44;;;;;;;3.80;2.20;;;;;;;;;;5054598;28;20698;-67
2023/02/26 02:30:22;;;;;;;5.45;2.20;;;;;;;;;;5055294;28;20215;-67
2023/02/26 02:32:55;;;;;;;4.72;2.47;;;;;;;;;;5056011;28;20727;-68
2023/02/26 02:35:25;;;;;;;2.55;2.35;;;;;;;;;;5056301;28;20327;-68
2023/02/26 02:37:56;;;;;;;3.38;2.05;;;;;;;;;;5056763;28;20208;-68
2023/02/26 02:40:26;;;;;;;3.25;2.60;;;;;;;;;;5056303;28;20749;-68
2023/02/26 02:42:58;;;;;;;3.00;2.80;;;;;;;;;;5055926;28;20720;-69
2023/02/26 02:45:29;;;;;;;8.18;2.92;;;;;;;;;;5055705;28;20211;-68
2023/02/26 02:48:01;;;;;;;2.53;2.03;;;;;;;;;;5054963;28;20189;-68
2023/02/26 02:50:31;;;;;;;2.47;2.33;;;;;;;;;;5056357;28;20189;-67
2023/02/26 02:53:04;;;;;;;3.08;2.78;;;;;;;;;;5054885;28;20196;-68
2023/02/26 02:55:34;;;;;;;2.75;2.55;;;;;;;;;;5056218;28;20211;-68
2023/02/26 02:58:03;;;;;;;2.20;2.00;;;;;;;;;;5056366;28;20214;-68
2023/02/26 03:00:33;;;;;;;3.67;2.40;;;;;;;;;;5055094;28;20224;-68
2023/02/26 03:03:06;;;;;;;5.65;2.95;;;;;;;;;;5053329;28;20207;-67
2023/02/26 03:05:34;;;;;;;3.22;2.38;;;;;;;;;;5053744;28;20551;-68
2023/02/26 03:08:05;;;;;;;6.93;2.35;;;;;;;;;;5054156;28;20204;-68
2023/02/26 03:10:34;;;;;;;3.85;2.65;;;;;;;;;;5054106;28;20188;-68
2023/02/26 03:13:02;;;;;;;2.85;2.03;;;;;;;;;;5052930;28;20637;-68
2023/02/26 03:15:36;;;;;;;3.63;2.30;;;;;;;;;;5053145;28;20210;-68
2023/02/26 03:18:13;;;;;;;3.40;2.63;;;;;;;;;;5053359;28;20693;-68
2023/02/26 03:20:45;;;;;;;3.92;2.25;;;;;;;;;;5053408;28;20556;-68
2023/02/26 03:23:15;;;;;;;5.38;2.42;;;;;;;;;;5053433;28;20216;-67
2023/02/26 03:25:46;;;;;;;2.03;1.92;;;;;;;;;;5054150;28;20358;-68
2023/02/26 03:28:19;;;;;;;6.00;2.25;;;;;;;;;;5052158;28;20234;-67
2023/02/26 03:30:51;;;;;;;4.30;2.35;;;;;;;;;;5054452;28;20191;-68
2023/02/26 03:33:23;;;;;;;3.13;2.45;;;;;;;;;;5056317;28;20284;-69
2023/02/26 03:35:54;;;;;;;7.82;2.40;;;;;;;;;;5055224;28;20267;-68
2023/02/26 03:38:26;;;;;;;5.55;2.00;;;;;;;;;;5055959;28;20272;-68
2023/02/26 03:40:55;;;;;;;4.00;2.40;;;;;;;;;;5054733;28;20209;-68
2023/02/26 03:43:27;;;;;;;8.93;2.20;;;;;;;;;;5055361;28;20248;-67
2023/02/26 03:45:58;;;;;;;2.80;1.52;;;;;;;;;;5055880;28;20188;-67
2023/02/26 03:48:29;;;;;;;4.40;2.00;;;;;;;;;;5054496;28;20193;-68
2023/02/26 03:51:02;;;;;;;3.28;1.98;;;;;;;;;;5053910;28;20189;-68
2023/02/26 03:53:45;;;;;;;4.40;2.05;;;;;;;;;;5053903;28;20184;-67
2023/02/26 03:56:19;;;;;;;6.28;2.35;;;;;;;;;;5053698;28;20198;-67
2023/02/26 03:58:48;;;;;;;6.18;2.63;;;;;;;;;;5054881;28;20201;-67
2023/02/26 04:01:29;;;;;;;5.03;2.80;;;;;;;;;;5054960;28;20295;-68
2023/02/26 04:04:01;;;;;;;4.95;2.42;;;;;;;;;;5054526;28;20246;-67
2023/02/26 04:06:30;;;;;;;5.70;2.75;;;;;;;;;;5056902;28;20195;-67
2023/02/26 04:08:58;;;;;;;3.75;2.42;;;;;;;;;;5055732;28;20238;-67
2023/02/26 04:11:28;;;;;;;3.55;2.28;;;;;;;;;;5056090;28;20193;-67
2023/02/26 04:13:57;;;;;;;7.38;3.30;;;;;;;;;;5057608;28;20266;-68
2023/02/26 04:16:25;;;;;;;3.35;2.33;;;;;;;;;;5055123;28;20257;-67
2023/02/26 04:18:53;;;;;;;4.53;2.55;;;;;;;;;;5055851;28;20215;-67
2023/02/26 04:21:23;;;;;;;4.43;2.00;;;;;;;;;;5054722;28;20228;-67
2023/02/26 04:23:51;;;;;;;2.80;1.92;;;;;;;;;;5053574;28;20232;-68
2023/02/26 04:26:20;;;;;;;3.17;2.05;;;;;;;;;;5054674;28;20561;-68
2023/02/26 04:28:48;;;;;;;7.50;2.10;;;;;;;;;;5056334;28;20229;-69
2023/02/26 04:31:16;;;;;;;4.25;1.63;;;;;;;;;;5055253;28;20207;-67
2023/02/26 04:33:45;;;;;;;3.30;1.98;;;;;;;;;;5054551;28;20211;-67
2023/02/26 04:36:13;;;;;;;4.80;2.10;;;;;;;;;;5054870;28;20199;-68
2023/02/26 04:38:43;;;;;;;2.15;1.80;;;;;;;;;;5054648;28;20204;-68
2023/02/26 04:41:12;;;;;;;2.08;1.67;;;;;;;;;;5054609;28;20204;-68
2023/02/26 04:43:40;;;;;;;5.57;1.98;;;;;;;;;;5052810;28;20196;-67
2023/02/26 04:46:27;;;;;;;2.20;2.00;;;;;;;;;;5054503;28;20192;-68
2023/02/26 04:48:55;;;;;;;5.05;2.10;;;;;;;;;;5054711;28;20237;-68
2023/02/26 04:51:24;;;;;;;6.75;2.00;;;;;;;;;;5054880;28;20574;-68
2023/02/26 04:53:54;;;;;;;3.60;2.70;;;;;;;;;;5055090;28;20208;-68
2023/02/26 04:56:22;;;;;;;5.78;2.40;;;;;;;;;;5054137;28;20612;-67
2023/02/26 04:58:50;;;;;;;1.70;1.60;;;;;;;;;;5056016;28;20571;-67
2023/02/26 05:01:24;;;;;;;2.60;1.52;;;;;;;;;;5053474;28;20184;-67
2023/02/26 05:03:52;;;;;;;5.20;2.30;;;;;;;;;;5054235;28;20207;-68
2023/02/26 05:06:21;;;;;;;2.55;1.73;;;;;;;;;;5054250;28;20566;-68
2023/02/26 05:08:50;;;;;;;4.18;1.65;;;;;;;;;;5054531;28;20563;-68
2023/02/26 05:11:20;;;;;;;3.63;1.95;;;;;;;;;;5053264;28;20715;-68
2023/02/26 05:13:49;;;;;;;2.13;1.90;;;;;;;;;;5054107;28;20203;-68
2023/02/26 05:16:18;;;;;;;4.47;1.83;;;;;;;;;;5053577;28;20204;-68
2023/02/26 05:18:46;;;;;;;6.55;2.05;;;;;;;;;;5053433;28;20193;-67
2023/02/26 05:21:15;;;;;;;3.15;2.03;;;;;;;;;;5053030;28;20678;-67
2023/02/26 05:23:43;;;;;;;3.20;1.88;;;;;;;;;;5053542;28;20226;-67
2023/02/26 05:26:11;;;;;;;4.78;2.83;;;;;;;;;;5054749;28;20193;-68
2023/02/26 05:28:44;;;;;;;2.58;1.60;;;;;;;;;;5053246;28;20721;-67
2023/02/26 05:31:13;;;;;;;2.20;2.00;;;;;;;;;;5053653;28;20209;-68
2023/02/26 05:33:42;;;;;;;8.68;2.47;;;;;;;;;;5054616;28;20563;-67
2023/02/26 05:36:10;;;;;;;2.72;1.75;;;;;;;;;;5054992;28;20215;-67
2023/02/26 05:38:38;;;;;;;2.30;2.10;;;;;;;;;;5055193;28;20286;-67
2023/02/26 05:41:07;;;;;;;4.38;2.17;;;;;;;;;;5053849;28;20201;-68
2023/02/26 05:43:35;;;;;;;4.15;1.65;;;;;;;;;;5055066;28;20206;-68
2023/02/26 05:46:04;;;;;;;4.20;1.83;;;;;;;;;;5053684;28;20200;-68
2023/02/26 05:48:33;;;;;;;2.28;2.08;;;;;;;;;;5055466;28;20230;-68
2023/02/26 05:51:01;;;;;;;7.47;2.22;;;;;;;;;;5054322;28;20217;-68
2023/02/26 05:53:29;;;;;;;4.90;1.80;;;;;;;;;;5053965;28;20526;-67
2023/02/26 05:55:58;;;;;;;3.38;2.15;;;;;;;;;;5053991;28;20204;-67
2023/02/26 05:58:26;;;;;;;1.88;1.75;;;;;;;;;;5054000;28;20207;-67
2023/02/26 06:00:54;;;;;;;2.05;1.95;;;;;;;;;;5052892;28;20196;-68
2023/02/26 06:03:24;;;;;;;3.35;1.95;;;;;;;;;;5053684;28;20205;-67
2023/02/26 06:05:52;;;;;;;5.53;2.00;;;;;;;;;;5054445;28;20679;-67
2023/02/26 06:08:20;;;;;;;10.68;2.55;;;;;;;;;;5055216;28;20215;-67
2023/02/26 06:10:48;;;;;;;7.03;2.22;;;;;;;;;;5055003;28;20251;-68
2023/02/26 06:13:17;;;;;;;2.58;1.75;;;;;;;;;;5055052;28;20204;-68
2023/02/26 06:15:46;;;;;;;2.95;2.13;;;;;;;;;;5053656;28;20204;-68
2023/02/26 06:18:14;;;;;;;6.30;2.22;;;;;;;;;;5054111;28;20209;-68
2023/02/26 06:20:43;;;;;;;4.15;2.30;;;;;;;;;;5053812;28;20199;-67
2023/02/26 06:23:13;;;;;;;2.70;1.70;;;;;;;;;;5053624;28;20235;-67
2023/02/26 06:25:42;;;;;;;4.57;1.98;;;;;;;;;;5054989;28;20195;-67
2023/02/26 06:28:10;;;;;;;6.60;2.08;;;;;;;;;;5053334;28;20229;-67
2023/02/26 06:30:38;;;;;;;4.80;2.10;;;;;;;;;;5053785;28;20262;-67
2023/02/26 06:33:06;;;;;;;6.18;2.65;;;;;;;;;;5053985;28;20565;-68
2023/02/26 06:35:34;;;;;;;5.40;2.17;;;;;;;;;;5055961;28;20207;-68
2023/02/26 06:38:04;;;;;;;3.17;2.00;;;;;;;;;;5054033;28;20314;-67
2023/02/26 06:40:32;;;;;;;2.58;2.17;;;;;;;;;;5054143;28;20349;-68
2023/02/26 06:43:00;;;;;;;3.72;2.05;;;;;;;;;;5053354;28;20711;-67
2023/02/26 06:45:29;;;;;;;5.15;2.28;;;;;;;;;;5052852;28;20562;-67
2023/02/26 06:47:57;;;;;;;5.30;2.97;;;;;;;;;;5053355;28;20211;-67
2023/02/26 06:50:25;;;;;;;3.97;2.13;;;;;;;;;;5053191;28;20212;-67
2023/02/26 06:52:53;;;;;;;4.07;1.90;;;;;;;;;;5053108;28;20204;-67
2023/02/26 06:55:25;;;;;;;7.07;2.78;;;;;;;;;;5053325;28;20197;-67
2023/02/26 06:57:53;;;;;;;5.10;2.97;;;;;;;;;;5052563;28;20299;-67
2023/02/26 07:00:22;;;;;;;9.75;3.13;;;;;;;;;;5051722;28;20610;-67
2023/02/26 07:02:51;;;;;;;5.35;2.85;;;;;;;;;;5051757;28;20207;-67
2023/02/26 07:05:19;;;;;;;8.50;3.30;;;;;;;;;;5047667;28;20201;-67
2023/02/26 07:07:47;;;;;;;5.32;2.85;;;;;;;;;;5052541;28;20200;-67
2023/02/26 07:10:15;;;;;;;4.47;2.92;;;;;;;;;;5052452;28;20196;-67
2023/02/26 07:12:45;;;;;;;3.47;2.50;;;;;;;;;;5051966;28;20223;-67
2023/02/26 07:15:13;;;;;;;3.40;2.47;;;;;;;;;;5052253;28;20975;-67
2023/02/26 07:17:41;;;;;;;6.97;2.75;;;;;;;;;;5052045;28;20196;-67
2023/02/26 07:20:11;;;;;;;4.88;2.30;;;;;;;;;;5050182;28;20311;-67
2023/02/26 07:22:39;;;;;;;3.50;2.90;;;;;;;;;;5052369;28;20216;-67
2023/02/26 07:25:07;;;;;;;5.03;2.08;;;;;;;;;;5052079;28;20669;-67
2023/02/26 07:27:35;;;;;;;4.15;2.58;;;;;;;;;;5052388;28;20552;-67
2023/02/26 07:30:06;;;;;;;2.67;2.17;;;;;;;;;;5050570;28;20185;-68
2023/02/26 07:32:34;;;;;;;3.28;2.22;;;;;;;;;;5045857;28;20208;-67
2023/02/26 07:35:03;;;;;;;4.75;2.72;;;;;;;;;;5051403;28;20197;-67
2023/02/26 07:37:31;;;;;;;10.93;2.35;;;;;;;;;;5052382;28;20231;-68
2023/02/26 07:39:59;;;;;;;5.22;2.40;;;;;;;;;;5052896;28;20215;-68
2023/02/26 07:42:27;;;;;;;6.55;2.90;;;;;;;;;;5056358;28;20188;-67
2023/02/26 07:44:55;;;;;;;6.97;2.78;;;;;;;;;;5056865;28;20210;-68
2023/02/26 07:47:25;;;;;;;2.67;2.47;;;;;;;;;;5056908;28;20668;-67
2023/02/26 07:49:54;;;;;;;4.80;2.55;;;;;;;;;;5056034;28;20212;-67
2023/02/26 07:52:22;;;;;;;7.53;2.35;;;;;;;;;;5057060;28;20212;-66
2023/02/26 07:54:50;;;;;;;4.22;2.28;;;;;;;;;;5056588;28;20597;-66
2023/02/26 07:57:18;;;;;;;2.78;2.45;;;;;;;;;;5056904;28;20217;-66
2023/02/26 07:59:46;;;;;;;4.28;2.22;;;;;;;;;;5056067;28;20198;-66
2023/02/26 08:02:15;;;;;;;6.28;3.20;;;;;;;;;;5036457;28;20668;-66
2023/02/26 08:04:45;;;;;;;4.88;3.25;;;;;;;;;;5036563;28;20545;-67
2023/02/26 08:07:13;;;;;;;4.38;3.00;;;;;;;;;;5056057;28;20196;-67
2023/02/26 08:09:41;;;;;;;4.90;2.70;;;;;;;;;;5056355;28;20205;-67
2023/02/26 08:12:09;;;;;;;7.13;2.80;;;;;;;;;;5055315;28;20251;-67
2023/02/26 08:14:39;;;;;;;5.00;3.22;;;;;;;;;;5055596;28;20573;-67
2023/02/26 08:17:08;;;;;;;2.35;2.15;;;;;;;;;;5057689;28;20215;-67
2023/02/26 08:19:36;;;;;;;3.78;3.47;;;;;;;;;;5058525;28;20258;-67
2023/02/26 08:22:06;;;;;;;3.25;2.95;;;;;;;;;;5057183;28;20215;-67
2023/02/26 08:24:34;;;;;;;4.53;2.97;;;;;;;;;;5056395;28;20211;-67
2023/02/26 08:27:03;;;;;;;5.60;2.90;;;;;;;;;;5055470;28;20201;-67
2023/02/26 08:29:31;;;;;;;3.55;3.15;;;;;;;;;;5052848;28;20228;-67
2023/02/26 08:31:59;;;;;;;6.57;3.30;;;;;;;;;;5056282;28;20228;-66
2023/02/26 08:34:27;;;;;;;2.55;2.35;;;;;;;;;;5057637;28;20297;-67
2023/02/26 08:36:55;;;;;;;3.25;2.17;;;;;;;;;;5056332;28;20269;-68
2023/02/26 08:39:25;;;;;;;6.78;3.38;;;;;;;;;;5057192;28;20572;-68
2023/02/26 08:41:53;;;;;;;2.83;2.63;;;;;;;;;;5055873;28;20201;-68
2023/02/26 08:44:22;;;;;;;3.85;2.65;;;;;;;;;;5056847;28;20201;-68
2023/02/26 08:46:50;;;;;;;4.15;3.40;;;;;;;;;;5055526;28;20203;-68
2023/02/26 08:49:18;;;;;;;7.45;3.38;;;;;;;;;;5056475;28;20350;-68
2023/02/26 08:51:46;;;;;;;4.10;2.88;;;;;;;;;;5055855;28;20281;-68
2023/02/26 08:54:15;;;;;;;7.88;2.80;;;;;;;;;;5055076;28;20200;-67
2023/02/26 08:56:44;;;;;;;6.65;3.33;;;;;;;;;;5056860;28;20204;-68
2023/02/26 08:59:13;;;;;;;3.50;2.83;;;;;;;;;;5055652;28;20201;-68
2023/02/26 09:01:41;;;;;;;5.30;3.58;;;;;;;;;;5056915;28;20203;-67
2023/02/26 09:04:09;;;;;;;5.28;3.10;;;;;;;;;;5055009;28;20246;-68
2023/02/26 09:06:37;;;;;;;4.97;3.40;;;;;;;;;;5056468;28;20205;-67
2023/02/26 09:09:06;;;;;;;10.95;4.50;;;;;;;;;;5054415;28;20200;-68
2023/02/26 09:11:35;;;;;;;3.50;3.20;;;;;;;;;;5056252;28;20556;-67
2023/02/26 09:14:05;;;;;;;4.95;3.00;;;;;;;;;;5055896;28;20197;-67
2023/02/26 09:16:35;;;;;;;6.05;2.88;;;;;;;;;;5055566;28;20520;-67
2023/02/26 09:19:04;;;;;;;3.90;3.60;;;;;;;;;;5053392;28;20242;-67
2023/02/26 09:21:32;;;;;;;5.93;3.70;;;;;;;;;;5054249;28;20203;-67
2023/02/26 09:24:00;;;;;;;5.72;4.30;;;;;;;;;;5055370;28;20703;-68
2023/02/26 09:26:28;;;;;;;5.03;2.78;;;;;;;;;;5054359;28;20205;-68
2023/02/26 09:28:56;;;;;;;3.38;3.08;;;;;;;;;;5055296;28;20236;-67
2023/02/26 09:31:26;;;;;;;3.33;3.10;;;;;;;;;;5054168;28;20197;-67
2023/02/26 09:33:55;;;;;;;4.60;3.13;;;;;;;;;;5055151;28;20209;-67
2023/02/26 09:36:23;;;;;;;7.05;4.00;;;;;;;;;;5053753;28;20567;-68
2023/02/26 09:38:51;;;;;;;4.60;3.15;;;;;;;;;;5056383;28;20207;-67
2023/02/26 09:41:22;;;;;;;3.75;3.13;;;;;;;;;;5053872;28;20208;-67
2023/02/26 09:43:56;;;;;;;7.70;3.50;;;;;;;;;;5054649;28;20193;-67
2023/02/26 09:46:32;;;;;;;8.52;3.35;;;;;;;;;;5054515;28;20272;-67
2023/02/26 09:49:05;;;;;;;3.08;2.88;;;;;;;;;;5055024;28;20188;-68
2023/02/26 09:51:34;;;;;;;4.82;3.58;;;;;;;;;;5054137;28;20197;-67
2023/02/26 09:54:04;;;;;;;4.95;3.65;;;;;;;;;;5055905;28;20223;-67
2023/02/26 09:56:35;;;;;;;4.53;3.53;;;;;;;;;;5054396;28;20205;-67
2023/02/26 09:59:03;;;;;;;3.47;3.20;;;;;;;;;;5056845;28;20193;-67
2023/02/26 10:01:37;;;;;;;6.88;3.60;;;;;;;;;;5054305;28;20604;-67
2023/02/26 10:04:09;;;;;;;4.13;3.28;;;;;;;;;;5053615;28;20670;-67
2023/02/26 10:06:42;;;;;;;3.83;3.53;;;;;;;;;;5055939;28;20556;-67
2023/02/26 10:09:18;;;;;;;4.35;3.90;;;;;;;;;;5053574;28;20203;-67
2023/02/26 10:11:49;;;;;;;5.15;4.30;;;;;;;;;;5051684;28;20197;-67
2023/02/26 10:14:19;;;;;;;3.83;3.53;;;;;;;;;;5052636;28;20683;-68
2023/02/26 10:16:52;;;;;;;3.10;2.90;;;;;;;;;;5053126;28;20204;-67
2023/02/26 10:19:21;;;;;;;3.67;3.38;;;;;;;;;;5052742;28;20203;-68
2023/02/26 10:21:52;;;;;;;3.30;3.10;;;;;;;;;;5051430;28;20204;-68
2023/02/26 10:24:22;;;;;;;5.60;3.33;;;;;;;;;;5053337;28;20235;-68
2023/02/26 10:26:52;;;;;;;6.13;4.00;;;;;;;;;;5051283;28;20197;-67
2023/02/26 10:29:22;;;;;;;3.50;3.20;;;;;;;;;;5051160;28;20234;-67
2023/02/26 10:31:58;;;;;;;5.43;3.72;;;;;;;;;;5050156;28;20199;-68
2023/02/26 10:34:31;;;;;;;3.90;3.60;;;;;;;;;;5051887;28;20217;-68
2023/02/26 10:37:04;;;;;;;2.70;2.60;;;;;;;;;;5052865;28;20234;-69
2023/02/26 10:39:34;;;;;;;4.00;3.38;;;;;;;;;;5050252;28;20192;-68
2023/02/26 10:42:03;;;;;;;2.72;2.58;;;;;;;;;;5051645;28;20201;-67
2023/02/26 10:44:36;;;;;;;3.08;2.92;;;;;;;;;;5051164;28;20207;-67
2023/02/26 10:47:08;;;;;;;2.85;2.65;;;;;;;;;;5050775;28;20261;-68
2023/02/26 10:49:41;;;;;;;3.42;2.90;;;;;;;;;;5046640;28;20188;-68
2023/02/26 10:52:13;;;;;;;4.95;2.88;;;;;;;;;;5052002;28;20189;-68
2023/02/26 10:54:46;;;;;;;2.95;2.85;;;;;;;;;;5047990;28;20568;-67
2023/02/26 10:57:17;;;;;;;3.60;3.40;;;;;;;;;;5052021;28;20189;-68
2023/02/26 10:59:45;;;;;;;4.68;3.63;;;;;;;;;;5051056;28;20245;-67
2023/02/26 11:02:27;;;;;;;3.15;2.88;;;;;;;;;;5051600;28;20200;-69
2023/02/26 11:04:55;;;;;;;2.90;2.80;;;;;;;;;;5046905;28;20192;-69
2023/02/26 11:07:24;;;;;;;5.60;3.20;;;;;;;;;;5051665;28;20219;-68
2023/02/26 11:09:53;;;;;;;3.80;3.45;;;;;;;;;;5052196;28;20212;-68
2023/02/26 11:12:22;;;;;;;5.15;4.72;;;;;;;;;;5051995;28;20203;-69
2023/02/26 11:14:51;;;;;;;3.33;2.65;;;;;;;;;;5032751;28;20218;-69
2023/02/26 11:17:22;;;;;;;3.47;3.00;;;;;;;;;;5051532;28;20205;-68
2023/02/26 11:19:53;;;;;;;2.58;2.38;;;;;;;;;;5051244;28;20664;-69
2023/02/26 11:22:22;;;;;;;3.60;2.83;;;;;;;;;;5050142;28;20212;-69
2023/02/26 11:24:51;;;;;;;3.50;3.20;;;;;;;;;;5053095;28;20759;-68
2023/02/26 11:27:21;;;;;;;3.47;2.70;;;;;;;;;;5051110;28;20543;-68
2023/02/26 11:29:54;;;;;;;2.88;2.50;;;;;;;;;;5052766;28;20214;-68
2023/02/26 11:32:25;;;;;;;9.05;2.88;;;;;;;;;;5052606;28;20189;-69
2023/02/26 11:34:55;;;;;;;2.45;2.35;;;;;;;;;;5051751;28;20586;-68
2023/02/26 11:37:28;;;;;;;7.72;3.03;;;;;;;;;;5052593;28;20202;-68
2023/02/26 11:39:58;;;;;;;2.83;2.70;;;;;;;;;;5052442;28;20211;-69
2023/02/26 11:42:26;;;;;;;3.10;2.85;;;;;;;;;;5051246;28;20568;-68
2023/02/26 11:44:55;;;;;;;3.42;3.13;;;;;;;;;;5052065;28;20207;-68
2023/02/26 11:47:26;;;;;;;3.30;3.00;;;;;;;;;;5052187;28;20199;-68
2023/02/26 11:49:55;;;;;;;3.60;2.65;;;;;;;;;;5052518;28;20197;-68
2023/02/26 11:52:27;;;;;;;6.15;2.65;;;;;;;;;;5052790;28;20207;-68
2023/02/26 11:54:58;;;;;;;2.80;2.60;;;;;;;;;;5051301;28;20250;-68
2023/02/26 11:57:27;;;;;;;3.70;2.40;;;;;;;;;;5051795;28;20193;-68
2023/02/26 11:59:56;;;;;;;4.93;2.47;;;;;;;;;;5052617;28;20197;-68
2023/02/26 12:02:28;;;;;;;3.50;3.10;;;;;;;;;;5050105;28;20724;-68
2023/02/26 12:04:59;;;;;;;2.83;2.63;;;;;;;;;;5051771;28;20238;-68
2023/02/26 12:07:28;;;;;;;2.40;2.30;;;;;;;;;;5051218;28;20193;-68
2023/02/26 12:09:56;;;;;;;2.17;2.08;;;;;;;;;;5051852;28;20730;-68
2023/02/26 12:12:42;;;;;;;2.10;2.10;;;;;;;;;;5052629;28;20207;-68
2023/02/26 12:15:18;;;;;;;2.40;2.30;;;;;;;;;;5051575;28;20212;-68
2023/02/26 12:17:56;;;;;;;2.10;2.00;;;;;;;;;;5050466;28;20196;-68
2023/02/26 12:20:27;;;;;;;3.10;2.90;;;;;;;;;;5052421;28;20192;-68
2023/02/26 12:23:05;;;;;;;2.85;2.55;;;;;;;;;;5050347;28;20235;-68
2023/02/26 12:25:48;;;;;;;2.70;2.60;;;;;;;;;;5052314;28;20192;-68
2023/02/26 12:28:34;;;;;;;2.65;2.55;;;;;;;;;;5054781;28;20224;-68
2023/02/26 12:31:23;;;;;;;3.67;3.38;;;;;;;;;;5053850;28;20192;-68
2023/02/26 12:33:56;;;;;;;2.60;2.40;;;;;;;;;;5049409;28;20694;-69
2023/02/26 12:36:30;;;;;;;2.95;2.75;;;;;;;;;;5054184;28;20261;-67
2023/02/26 12:39:05;;;;;;;2.97;2.80;;;;;;;;;;5054154;28;20199;-67
2023/02/26 12:41:44;;;;;;;2.60;2.50;;;;;;;;;;5055690;28;20614;-70
2023/02/26 12:44:20;;;;;;;2.97;2.83;;;;;;;;;;5047643;28;20254;-67
2023/02/26 12:46:53;;;;;;;4.47;3.50;;;;;;;;;;5054713;28;20189;-67
2023/02/26 12:49:31;;;;;;;4.43;4.10;;;;;;;;;;5054402;28;20201;-68
2023/02/26 12:52:05;;;;;;;3.05;2.85;;;;;;;;;;5054642;28;20203;-68
2023/02/26 12:54:42;;;;;;;4.90;2.70;;;;;;;;;;5054163;28;20212;-67
2023/02/26 12:57:20;;;;;;;3.55;2.92;;;;;;;;;;5053445;28;20241;-67
2023/02/26 13:00:01;;;;;;;3.05;2.85;;;;;;;;;;5053033;28;20207;-67
2023/02/26 13:02:48;;;;;;;3.63;2.72;;;;;;;;;;5054267;28;20263;-67
2023/02/26 13:05:24;;;;;;;3.30;3.10;;;;;;;;;;5053222;28;20207;-67
2023/02/26 13:07:59;;;;;;;5.45;2.85;;;;;;;;;;5053808;28;20196;-67
2023/02/26 13:10:30;;;;;;;3.42;3.22;;;;;;;;;;5054866;28;20196;-68
2023/02/26 13:13:03;;;;;;;2.63;2.53;;;;;;;;;;5051806;28;20195;-68
2023/02/26 13:15:42;;;;;;;2.92;2.83;;;;;;;;;;5054971;28;20213;-67
2023/02/26 13:18:13;;;;;;;3.15;3.05;;;;;;;;;;5053543;28;20703;-67
2023/02/26 13:20:47;;;;;;;2.88;2.78;;;;;;;;;;5054820;28;20192;-67
2023/02/26 13:23:18;;;;;;;3.53;3.40;;;;;;;;;;5053055;28;20703;-68
2023/02/26 13:25:50;;;;;;;4.10;3.90;;;;;;;;;;5054830;28;20555;-67
2023/02/26 13:28:22;;;;;;;3.35;3.20;;;;;;;;;;5054129;28;20281;-67
2023/02/26 13:30:53;;;;;;;3.47;3.38;;;;;;;;;;5053096;28;20581;-68
2023/02/26 13:33:23;;;;;;;4.35;3.95;;;;;;;;;;5053451;28;20330;-68
2023/02/26 13:35:54;;;;;;;3.30;3.20;;;;;;;;;;5053746;28;20223;-68
2023/02/26 13:38:25;;;;;;;3.58;3.38;;;;;;;;;;5053231;28;20189;-69
2023/02/26 13:40:57;;;;;;;2.90;2.80;;;;;;;;;;5053691;28;20195;-68
2023/02/26 13:43:37;;;;;;;3.88;3.50;;;;;;;;;;5053553;28;20189;-69
2023/02/26 13:46:12;;;;;;;6.25;3.45;;;;;;;;;;5054564;28;20188;-69
2023/02/26 13:48:43;;;;;;;3.40;3.30;;;;;;;;;;5053362;28;20245;-68
2023/02/26 13:51:16;;;;;;;3.92;3.22;;;;;;;;;;5053429;28;20193;-68
2023/02/26 13:53:49;;;;;;;3.10;3.00;;;;;;;;;;5052664;28;20648;-68
2023/02/26 13:56:21;;;;;;;3.55;3.25;;;;;;;;;;5050873;28;20189;-68
2023/02/26 13:58:50;;;;;;;3.35;3.25;;;;;;;;;;5053226;28;20661;-68
2023/02/26 14:01:19;;;;;;;3.40;3.30;;;;;;;;;;5053386;28;20483;-68
2023/02/26 14:03:50;;;;;;;3.15;3.05;;;;;;;;;;5052068;28;20215;-68
2023/02/26 14:06:40;;;;;;;2.90;2.70;;;;;;;;;;5051300;28;20827;-68
2023/02/26 14:09:23;;;;;;;2.83;2.72;;;;;;;;;;5050014;28;20203;-68
2023/02/26 14:12:00;;;;;;;3.38;3.15;;;;;;;;;;5052552;28;20234;-68
2023/02/26 14:14:35;;;;;;;3.10;2.90;;;;;;;;;;5053088;28;20270;-68
2023/02/26 14:17:19;;;;;;;3.00;2.90;;;;;;;;;;5041746;28;20226;-68
2023/02/26 14:20:07;;;;;;;3.67;3.50;;;;;;;;;;5051564;28;20249;-68
2023/02/26 14:22:40;;;;;;;2.80;2.70;;;;;;;;;;5047578;28;20223;-68
2023/02/26 14:25:14;;;;;;;3.10;3.00;;;;;;;;;;5050921;28;20184;-68
2023/02/26 14:27:46;;;;;;;3.10;3.00;;;;;;;;;;5051305;28;20300;-68
2023/02/26 14:30:19;;;;;;;3.22;3.10;;;;;;;;;;5053610;28;20265;-68
2023/02/26 14:32:48;;;;;;;3.13;3.03;;;;;;;;;;5049538;28;20208;-68
2023/02/26 14:35:20;;;;;;;3.20;3.10;;;;;;;;;;5051597;28;20291;-68
2023/02/26 14:37:55;;;;;;;3.20;3.10;;;;;;;;;;5049884;28;20203;-68
2023/02/26 14:40:24;;;;;;;2.95;2.85;;;;;;;;;;5049387;28;20196;-68
2023/02/26 14:42:55;;;;;;;4.03;3.83;;;;;;;;;;5049460;28;20200;-68
2023/02/26 14:45:30;;;;;;;3.55;3.35;;;;;;;;;;5050205;28;20189;-68
2023/02/26 14:48:00;;;;;;;4.50;4.30;;;;;;;;;;5048057;28;20204;-68
2023/02/26 14:50:32;;;;;;;3.55;3.40;;;;;;;;;;5048823;28;20204;-69
2023/02/26 14:53:10;;;;;;;3.30;3.10;;;;;;;;;;5050261;28;20200;-68
2023/02/26 14:55:46;;;;;;;3.53;3.33;;;;;;;;;;5046550;28;20209;-68
2023/02/26 14:58:35;;;;;;;3.30;3.20;;;;;;;;;;5047091;28;20265;-69
2023/02/26 15:01:08;;;;;;;3.70;3.60;;;;;;;;;;5014136;28;20203;-69
2023/02/26 15:03:46;;;;;;;3.30;3.20;;;;;;;;;;5047695;28;20215;-69
2023/02/26 15:06:21;;;;;;;3.33;3.22;;;;;;;;;;5047117;28;20295;-69